Nearby METAR Reports

 

PAEN - Kenai, Alaska, USA
Distance from station: ESE 2mi, 4km
Updated: Tue, 24-Apr-2018 8:08pm AKDT
Mostly cloudy
Mostly cloudy
 Wind from S
Wind: S 25 mph , 41 km/h, Gust: 31 mph , 50 km/h
Temperature: 41°F , 5°C
Wind Chill: 31°F , -1°C
Barometer: 29.56 inHg , 1001 hPa
Clouds: Mostly cloudy
Visibility: 10 miles , 16 km
Cloud details: Mostly cloudy 2900 ft
2018/04/25 04:08 PAEN 250408Z 19022G27KT 10SM BKN029 05/ A2956 RMK AO2 PK WND 20029/0358 T0050 $
PASX - Soldotna, Alaska, USA
Distance from station: SE 12mi, 19km
Updated: Tue, 24-Apr-2018 7:56pm AKDT
Clear
Clear
 Wind from S
Wind: S 15 mph , 24 km/h, Gust: 24 mph , 39 km/h
Temperature: 43°F , 6°C
Wind Chill: 36°F , 2°C
Dew Point: 30°F , -1°C
Humidity: 61%
Barometer: 29.57 inHg , 1001.4 hPa
Clouds: Clear
Visibility: 10 miles , 16 km
2018/04/25 03:56 PASX 250356Z AUTO 19013G21KT 10SM CLR 06/M01 A2957 RMK AO2 SLP023 T00561006
 
PANC - Anchorage Intl, Alaska, USA
Distance from station: NE 59mi, 96km
Updated: Tue, 24-Apr-2018 8:15pm AKDT
Light rain, Snow, Overcast
Light rain, Snow, Overcast
 Wind from SE
Wind: SE 16 mph , 26 km/h
Temperature: 36°F , 2°C
Wind Chill: 26°F , -3°C
Dew Point: 34°F , 1°C
Humidity: 93%
Barometer: 29.60 inHg , 1002.4 hPa
Summary: Light rain, Snow
Clouds: Overcast
Visibility: 3 miles , 5 km
Cloud details: Partly cloudy 1100 ft
Overcast 2500 ft
2018/04/25 04:15 PANC 250415Z 13014KT 3SM -RASN SCT011 OVC025 02/01 A2960 RMK AO2 VIS NE-SE 2 P0001 T00220006
PALH - Anchorage/Lake H, Alaska, USA
Distance from station: NE 61mi, 99km
Updated: Tue, 24-Apr-2018 8:09pm AKDT
Light snow, Mist, Overcast
Light snow, Mist, Overcast
 Wind from SSE
Wind: SSE 12 mph , 19 km/h, Gust: 24 mph , 39 km/h
Temperature: 34°F , 1°C
Wind Chill: 25°F , -4°C
Dew Point: 34°F , 1°C
Humidity: 100%
Barometer: 29.62 inHg , 1003 hPa
Summary: Light snow, Mist
Clouds: Overcast
Visibility: 4 miles , 6 km
Cloud details: Overcast 1700 ft
2018/04/25 04:09 PALH 250409Z 15010G21KT 4SM -SN BR OVC017 01/01 A2962 RMK AO2 P0001 T00110006
 
PAHO - Homer, Alaska, USA
Distance from station: S 66mi, 106km
Updated: Tue, 24-Apr-2018 7:53pm AKDT
Overcast
Overcast
 Wind from SW
Wind: SW 15 mph , 24 km/h
Temperature: 45°F , 7°C
Wind Chill: 38°F , 3°C
Dew Point: 34°F , 1°C
Humidity: 66%
Barometer: 29.61 inHg , 1002.7 hPa
Clouds: Overcast
Visibility: 10 miles , 16 km
Cloud details: Overcast 4000 ft
2018/04/25 03:53 PAHO 250353Z 22013KT 10SM OVC040 07/01 A2961 RMK AO2 SLP028 T00670006
PAMR - Anchorage/Merril, Alaska, USA
Distance from station: NE 66mi, 106km
Updated: Tue, 24-Apr-2018 8:18pm AKDT
Light rain, Snow, Mist, Mostly cloudy
Light rain, Snow, Mist, Mostly cloudy
 Wind from S
Wind: S 13 mph , 20 km/h, Gust: 21 mph , 33 km/h
Temperature: 36°F , 2°C
Wind Chill: 27°F , -3°C
Dew Point: 36°F , 2°C
Humidity: 100%
Barometer: 29.62 inHg , 1003 hPa
Summary: Light rain, Snow, Mist
Clouds: Mostly cloudy
Visibility: 6 miles , 10 km
Cloud details: Mostly cloudy 1500 ft
2018/04/25 04:18 PAMR 250418Z 18011G18KT 6SM -RASN BR BKN015 02/02 A2962 RMK AO2 P0005 T00170017
 
PAED - Elmendorf Afb, Alaska, USA
Distance from station: NE 69mi, 110km
Updated: Tue, 24-Apr-2018 6:21pm AKDT
NOT Current
Overcast
Overcast
 Wind from ENE
Wind: ENE 14 mph , 22 km/h
Temperature: 45°F , 7°C
Wind Chill: 39°F , 4°C
Dew Point: 30°F , -1°C
Humidity: 57%
Barometer: 29.48 inHg , 998.3 hPa
Clouds: Overcast
Visibility: 10 miles , 16 km
Cloud details: Few Clouds 4500 ft
Mostly cloudy 6500 ft
Overcast 8000 ft
2018/04/25 02:21 PAED 250221Z 06012KT 10SM FEW045 BKN065 OVC080 07/M01 A2948 RMK AO2A WSHFT 16 SLP979 $
PAWD - Seward, Alaska, USA
Distance from station: ESE 71mi, 115km
Updated: Tue, 24-Apr-2018 7:53pm AKDT
Overcast
Overcast
 Wind from NNW
Wind: NNW 7 mph , 11 km/h
Temperature: 34°F , 1°C
Wind Chill: 28°F , -2°C
Dew Point: 34°F , 1°C
Humidity: 100%
Barometer: 29.62 inHg , 1003 hPa
Clouds: Overcast
Visibility: 10 miles , 16 km
Cloud details: Overcast 1300 ft
2018/04/25 03:53 PAWD 250353Z AUTO 33006KT 10SM OVC013 01/01 A2962 RMK AO2 RAE39 SLP029 P0007 T00110011 TSNO
 
PASC - Deadhorse, Alaska, USA
Distance from station: ENE 670mi, 1078km
Updated: Tue, 24-Apr-2018 7:53pm AKDT
Clear
Clear
 Wind from E
Wind: E 21 mph , 33 km/h
Temperature: 16°F , -9°C
Wind Chill: -1°F , -18°C
Dew Point: 12°F , -11°C
Humidity: 86%
Barometer: 29.52 inHg , 999.7 hPa
Clouds: Clear
Visibility: 10 miles , 16 km
2018/04/25 03:53 PASC 250353Z 09018KT 10SM CLR M09/M11 A2952 RMK AO2 SLP996 T10891106
PAAD - Point Thomson, Alaska, USA
Distance from station: ENE 680mi, 1094km
Updated: Tue, 24-Apr-2018 8:15pm AKDT
Clear
Clear
 Wind from E
Wind: E 17 mph , 28 km/h
Temperature: 16°F , -9°C
Wind Chill: 0°F , -18°C
Dew Point: 14°F , -10°C
Humidity: 93%
Barometer: 29.52 inHg , 999.7 hPa
Clouds: Clear
Visibility: 10 miles , 16 km
2018/04/25 04:15 PAAD 250415Z AUTO 08015KT 10SM CLR M09/M10 A2952 RMK AO2 T10871105


kenaipeople.com website

Dans Automotive

Lower Peninsula Power Sports

Freddies RoadHouse

Alaska Weather Net

United States Weather Group